Time;durP1;ratioP1;P1;durP2;ratioP2;P2;SDS_P1;SDS_P2;PMS_P1;PMS_P2;Temp;Humidity;BMP_temperature;BMP_pressure;BME280_temperature;BME280_humidity;BME280_pressure;Samples;Min_cycle;Max_cycle;Signal;HPM_P1;HPM_P2
2020/12/19 13:54:38;;;;;;;5.18;3.58;;;13.20;78.30;;;;;;5141216;27;27688;-66
2020/12/19 13:57:23;;;;;;;8.13;4.57;;;13.40;77.80;;;;;;5122641;27;27432;-63
2020/12/19 14:00:08;;;;;;;7.97;4.75;;;13.30;77.40;;;;;;5122373;27;27313;-64
2020/12/19 14:02:54;;;;;;;11.57;5.03;;;13.20;78.00;;;;;;5118784;27;27305;-63
2020/12/19 14:05:38;;;;;;;6.75;4.60;;;13.10;78.40;;;;;;5122178;27;27393;-63
2020/12/19 14:08:23;;;;;;;7.88;4.85;;;12.90;78.50;;;;;;5106637;27;27438;-63
2020/12/19 14:11:07;;;;;;;8.25;5.70;;;12.80;78.80;;;;;;5118693;27;27388;-62
2020/12/19 14:13:52;;;;;;;7.30;5.50;;;12.60;79.30;;;;;;5121572;27;27332;-62
2020/12/19 14:16:36;;;;;;;7.65;5.40;;;12.40;79.60;;;;;;5121787;27;27330;-63
2020/12/19 14:19:21;;;;;;;6.45;5.07;;;12.30;80.00;;;;;;5121733;27;27433;-61
2020/12/19 14:22:06;;;;;;;6.60;4.70;;;12.10;80.40;;;;;;5121889;27;27394;-63
2020/12/19 14:24:50;;;;;;;7.55;5.07;;;12.00;80.90;;;;;;5121688;27;27362;-63
2020/12/19 14:27:35;;;;;;;5.68;4.95;;;11.80;81.10;;;;;;5121669;27;27501;-65
2020/12/19 14:30:20;;;;;;;9.07;5.85;;;11.60;81.50;;;;;;5121466;27;27481;-65
2020/12/19 14:33:04;;;;;;;6.80;4.88;;;11.50;81.80;;;;;;5121340;27;27411;-64
2020/12/19 14:35:49;;;;;;;10.98;5.10;;;11.30;82.40;;;;;;5121796;27;27442;-65
2020/12/19 14:38:34;;;;;;;7.22;5.13;;;11.20;82.80;;;;;;5121358;27;27429;-64
2020/12/19 14:41:20;;;;;;;7.40;5.00;;;11.00;83.40;;;;;;5117801;27;27448;-60
2020/12/19 14:44:07;;;;;;;6.40;4.88;;;10.90;83.80;;;;;;5121083;27;27473;-60
2020/12/19 14:46:52;;;;;;;7.03;5.25;;;10.80;84.50;;;;;;5121416;27;27334;-59
2020/12/19 14:49:37;;;;;;;8.73;5.05;;;10.70;85.20;;;;;;5102854;27;27371;-60
2020/12/19 14:52:22;;;;;;;9.85;4.90;;;10.60;85.70;;;;;;5116070;27;27596;-59
2020/12/19 14:55:08;;;;;;;9.68;5.00;;;10.50;85.90;;;;;;5100874;28;27359;-60
2020/12/19 14:57:52;;;;;;;7.32;4.85;;;10.40;85.40;;;;;;5100646;28;27335;-59
2020/12/19 15:00:37;;;;;;;12.15;5.68;;;10.40;86.10;;;;;;5100506;28;27329;-59
2020/12/19 15:03:21;;;;;;;9.82;5.50;;;10.30;86.60;;;;;;5100394;28;27397;-59
2020/12/19 15:06:07;;;;;;;9.52;5.07;;;10.20;87.20;;;;;;5086340;28;27412;-59
2020/12/19 15:08:52;;;;;;;12.88;6.57;;;10.10;87.50;;;;;;5086944;28;27312;-60
2020/12/19 15:11:36;;;;;;;13.82;6.90;;;10.10;87.20;;;;;;5086760;28;27387;-60
2020/12/19 15:14:21;;;;;;;10.18;6.80;;;9.90;86.60;;;;;;5086087;28;27443;-60
2020/12/19 15:17:05;;;;;;;12.32;6.85;;;9.90;87.30;;;;;;5086139;28;27647;-60
2020/12/19 15:19:50;;;;;;;9.98;6.15;;;9.80;88.00;;;;;;5086727;28;27414;-60
2020/12/19 15:22:34;;;;;;;12.15;6.47;;;9.70;88.40;;;;;;5068392;28;27856;-60
2020/12/19 15:25:19;;;;;;;8.93;6.28;;;9.70;89.20;;;;;;5086635;28;27476;-60
2020/12/19 15:28:04;;;;;;;9.88;6.15;;;9.60;89.30;;;;;;5086298;28;27420;-60
2020/12/19 15:30:48;;;;;;;9.63;6.13;;;9.50;89.70;;;;;;5086172;28;27465;-59
2020/12/19 15:33:33;;;;;;;10.95;5.88;;;9.40;90.00;;;;;;5085984;28;27858;-60
2020/12/19 15:36:17;;;;;;;12.57;5.82;;;9.30;90.10;;;;;;5086461;28;27432;-61
2020/12/19 15:39:02;;;;;;;13.90;6.78;;;9.30;90.00;;;;;;5086536;28;27408;-58
2020/12/19 15:41:47;;;;;;;13.75;7.10;;;9.20;89.20;;;;;;5086101;28;27421;-59
2020/12/19 15:44:31;;;;;;;19.13;11.48;;;9.10;88.30;;;;;;5085725;28;27932;-60
2020/12/19 15:47:16;;;;;;;20.08;11.13;;;9.00;88.50;;;;;;5086174;28;27474;-60
2020/12/19 15:50:00;;;;;;;23.58;13.40;;;9.00;88.50;;;;;;5086125;28;27491;-60
2020/12/19 15:52:45;;;;;;;23.10;13.88;;;8.90;89.40;;;;;;5085460;28;27345;-60
2020/12/19 15:55:29;;;;;;;25.90;14.45;;;8.80;90.00;;;;;;5071094;28;27872;-61
2020/12/19 15:58:14;;;;;;;27.05;15.15;;;8.80;90.30;;;;;;5086204;28;27383;-52
2020/12/19 16:00:58;;;;;;;25.73;13.65;;;8.70;90.40;;;;;;5086335;28;27390;-61
2020/12/19 16:03:43;;;;;;;27.20;14.60;;;8.60;90.60;;;;;;5086178;28;27387;-60
2020/12/19 16:06:28;;;;;;;24.90;15.50;;;8.60;90.80;;;;;;5086035;28;27334;-61
2020/12/19 16:09:12;;;;;;;23.95;14.02;;;8.60;90.90;;;;;;5085507;28;27643;-60
2020/12/19 16:11:57;;;;;;;21.88;14.07;;;8.50;91.00;;;;;;5085764;28;27377;-49
2020/12/19 16:14:42;;;;;;;25.73;13.60;;;8.50;91.10;;;;;;5085743;28;27375;-60
2020/12/19 16:17:26;;;;;;;27.25;15.27;;;8.40;91.20;;;;;;5084455;28;27431;-59
2020/12/19 16:20:11;;;;;;;29.65;14.20;;;8.40;91.30;;;;;;5067410;28;27422;-60
2020/12/19 16:22:55;;;;;;;24.15;14.05;;;8.30;91.20;;;;;;5085593;28;27487;-58
2020/12/19 16:25:40;;;;;;;24.50;15.32;;;8.30;91.30;;;;;;5085663;28;27419;-59
2020/12/19 16:28:24;;;;;;;23.58;12.93;;;8.20;91.30;;;;;;5085633;28;27465;-60
2020/12/19 16:31:09;;;;;;;35.67;15.48;;;8.10;91.30;;;;;;5067090;28;27483;-60
2020/12/19 16:33:53;;;;;;;24.58;13.30;;;8.10;91.30;;;;;;5085422;28;27412;-60
2020/12/19 16:36:38;;;;;;;27.20;14.73;;;8.00;91.40;;;;;;5085051;28;27411;-51
2020/12/19 16:39:23;;;;;;;25.40;14.35;;;8.00;91.50;;;;;;5085435;28;27415;-60
2020/12/19 16:42:07;;;;;;;22.38;13.23;;;7.90;91.60;;;;;;5081915;28;27471;-60
2020/12/19 16:44:52;;;;;;;20.27;13.23;;;7.90;91.80;;;;;;5085311;28;26935;-61
2020/12/19 16:47:36;;;;;;;22.33;13.57;;;7.80;91.80;;;;;;5085195;28;27432;-61
2020/12/19 16:50:20;;;;;;;22.08;13.20;;;7.80;91.90;;;;;;5085455;28;27577;-60
2020/12/19 16:53:06;;;;;;;25.10;12.35;;;7.80;92.00;;;;;;5084236;28;27672;-61
2020/12/19 16:55:50;;;;;;;22.38;13.02;;;7.70;92.00;;;;;;5085415;28;27387;-60
2020/12/19 16:58:35;;;;;;;23.67;13.50;;;7.70;92.00;;;;;;5085071;28;27414;-59
2020/12/19 17:01:19;;;;;;;21.83;12.55;;;7.70;92.10;;;;;;5081923;28;27928;-60
2020/12/19 17:04:04;;;;;;;22.38;14.02;;;7.60;92.20;;;;;;5083133;28;27375;-59
2020/12/19 17:06:49;;;;;;;20.83;12.13;;;7.60;92.20;;;;;;5084794;28;27356;-60
2020/12/19 17:09:33;;;;;;;24.63;13.57;;;7.60;92.30;;;;;;5085058;28;27391;-60
2020/12/19 17:12:18;;;;;;;20.77;12.90;;;7.60;92.40;;;;;;5066123;28;27899;-58
2020/12/19 17:15:04;;;;;;;20.88;12.23;;;7.50;92.40;;;;;;5084666;28;27407;-59
2020/12/19 17:17:48;;;;;;;23.38;13.32;;;7.50;92.50;;;;;;5081613;28;27385;-59
2020/12/19 17:20:33;;;;;;;24.88;13.25;;;7.50;92.50;;;;;;5084539;28;27332;-59
2020/12/19 17:23:17;;;;;;;20.42;12.35;;;7.50;92.60;;;;;;5084791;28;27381;-59
2020/12/19 17:26:02;;;;;;;22.92;13.30;;;7.40;92.50;;;;;;5084555;28;27345;-59
2020/12/19 17:28:48;;;;;;;23.35;13.60;;;7.40;92.50;;;;;;5069297;28;27403;-59
2020/12/19 17:31:33;;;;;;;23.42;14.02;;;7.40;92.50;;;;;;5084286;28;27348;-59
2020/12/19 17:34:18;;;;;;;23.10;14.18;;;7.40;92.60;;;;;;5084592;28;27849;-58
2020/12/19 17:37:02;;;;;;;22.45;13.52;;;7.30;92.50;;;;;;5085046;28;27364;-47
2020/12/19 17:39:47;;;;;;;22.52;13.73;;;7.30;92.60;;;;;;5084620;28;27442;-58
2020/12/19 17:42:31;;;;;;;22.00;13.57;;;7.30;92.60;;;;;;5069740;28;27327;-58
2020/12/19 17:45:16;;;;;;;22.67;13.27;;;7.20;92.60;;;;;;5081852;28;27427;-60
2020/12/19 17:48:00;;;;;;;22.58;12.82;;;7.20;92.60;;;;;;5085225;28;27466;-59
2020/12/19 17:50:45;;;;;;;25.13;13.02;;;7.20;92.50;;;;;;5084937;28;27509;-60
2020/12/19 17:53:29;;;;;;;23.20;14.18;;;7.10;92.60;;;;;;5087183;28;27499;-59
2020/12/19 17:56:14;;;;;;;28.48;14.20;;;7.10;92.70;;;;;;5084880;28;27877;-60
2020/12/19 17:58:59;;;;;;;26.02;13.77;;;7.10;92.80;;;;;;5083790;28;27455;-60
2020/12/19 18:01:43;;;;;;;24.58;14.65;;;7.00;92.70;;;;;;5085090;28;27478;-58
2020/12/19 18:04:28;;;;;;;23.42;13.82;;;7.00;92.70;;;;;;5084709;28;27460;-59
2020/12/19 18:07:14;;;;;;;21.67;13.55;;;7.00;92.80;;;;;;5066471;28;27468;-59
2020/12/19 18:09:58;;;;;;;23.58;14.15;;;6.90;92.80;;;;;;5083816;28;27396;-60
2020/12/19 18:12:44;;;;;;;22.65;14.27;;;6.90;92.80;;;;;;5083946;28;27388;-60
2020/12/19 18:15:29;;;;;;;21.75;13.82;;;6.90;92.90;;;;;;5083961;28;27431;-59
2020/12/19 18:18:13;;;;;;;20.85;12.73;;;6.90;93.00;;;;;;5068875;28;27411;-59
2020/12/19 18:20:58;;;;;;;23.05;13.05;;;6.90;93.00;;;;;;5083851;28;27491;-60
2020/12/19 18:23:43;;;;;;;21.02;12.48;;;6.80;93.00;;;;;;5083794;28;27485;-58
2020/12/19 18:26:33;;;;;;;22.40;13.55;;;6.80;93.00;;;;;;5083467;28;27581;-60
2020/12/19 18:29:18;;;;;;;19.50;11.98;;;6.80;93.10;;;;;;5083666;28;27336;-61
2020/12/19 18:32:03;;;;;;;25.52;14.10;;;6.80;93.10;;;;;;5083666;28;27382;-60
2020/12/19 18:34:48;;;;;;;22.48;14.65;;;6.80;93.10;;;;;;5080501;28;27391;-60
2020/12/19 18:37:32;;;;;;;21.77;13.57;;;6.80;93.20;;;;;;5083641;28;27335;-61
2020/12/19 18:40:17;;;;;;;22.05;13.48;;;6.80;93.20;;;;;;5085634;28;28087;-60
2020/12/19 18:43:01;;;;;;;26.05;14.40;;;6.80;93.20;;;;;;5087031;28;27411;-60
2020/12/19 18:45:46;;;;;;;25.40;14.50;;;6.80;93.20;;;;;;5087271;28;27403;-59
2020/12/19 18:48:31;;;;;;;25.52;14.15;;;6.70;93.30;;;;;;5071927;28;27425;-60
2020/12/19 18:51:22;;;;;;;25.02;15.15;;;6.70;93.30;;;;;;5087203;28;27512;-60
2020/12/19 18:54:07;;;;;;;23.67;15.20;;;6.70;93.40;;;;;;5086088;28;27574;-60
2020/12/19 18:56:51;;;;;;;22.83;14.88;;;6.70;93.30;;;;;;5086939;28;27470;-60
2020/12/19 18:59:36;;;;;;;25.45;14.75;;;6.70;93.40;;;;;;5086758;28;27394;-59
2020/12/19 19:02:27;;;;;;;22.55;14.07;;;6.70;93.40;;;;;;5087010;28;27977;-59
2020/12/19 19:05:12;;;;;;;24.33;14.40;;;6.60;93.40;;;;;;5086811;28;27416;-59
2020/12/19 19:07:56;;;;;;;23.27;14.10;;;6.60;93.50;;;;;;5087014;28;27418;-60
2020/12/19 19:10:41;;;;;;;23.40;14.77;;;6.60;93.50;;;;;;5086995;28;27325;-60
2020/12/19 19:13:26;;;;;;;21.67;13.30;;;6.60;93.60;;;;;;5086630;28;27403;-61
2020/12/19 19:16:15;;;;;;;21.25;13.23;;;6.60;93.60;;;;;;5071745;28;27535;-60
2020/12/19 19:19:04;;;;;;;22.50;14.77;;;6.60;93.70;;;;;;5086636;28;27414;-61
2020/12/19 19:21:48;;;;;;;24.48;14.43;;;6.60;93.80;;;;;;5085487;28;27411;-61
2020/12/19 19:24:33;;;;;;;27.02;14.85;;;6.60;93.80;;;;;;5057475;28;27427;-61
2020/12/19 19:27:18;;;;;;;22.48;14.48;;;6.60;93.70;;;;;;5086721;28;27434;-61
2020/12/19 19:30:03;;;;;;;20.50;13.80;;;6.60;93.80;;;;;;5086536;28;27458;-60
2020/12/19 19:32:47;;;;;;;20.02;13.85;;;6.60;93.90;;;;;;5086301;28;27411;-61
2020/12/19 19:35:32;;;;;;;24.92;15.45;;;6.60;93.90;;;;;;5086511;28;27450;-60
2020/12/19 19:38:17;;;;;;;22.88;14.48;;;6.60;93.90;;;;;;5086419;28;27446;-57
2020/12/19 19:41:12;;;;;;;26.33;15.82;;;6.50;93.80;;;;;;5086215;28;27431;-60
2020/12/19 19:43:56;;;;;;;24.45;15.35;;;6.60;93.90;;;;;;5086479;28;27395;-60
2020/12/19 19:46:41;;;;;;;24.50;15.48;;;6.50;93.90;;;;;;5086107;28;27935;-59
2020/12/19 19:49:26;;;;;;;26.83;16.75;;;6.50;93.90;;;;;;5085757;28;27489;-59
2020/12/19 19:52:11;;;;;;;22.88;16.08;;;6.50;93.90;;;;;;5086296;28;27510;-60
2020/12/19 19:54:56;;;;;;;27.05;17.33;;;6.50;93.90;;;;;;5085313;28;27506;-60
2020/12/19 19:57:41;;;;;;;26.48;16.55;;;6.50;94.00;;;;;;5085943;28;27460;-61
2020/12/19 20:00:25;;;;;;;25.30;15.88;;;6.50;94.00;;;;;;5082631;28;27403;-61
2020/12/19 20:03:10;;;;;;;27.80;16.40;;;6.50;94.00;;;;;;5086244;28;27383;-60
2020/12/19 20:05:55;;;;;;;26.42;16.75;;;6.50;94.00;;;;;;5086165;28;27353;-59
2020/12/19 20:08:39;;;;;;;28.38;17.45;;;6.50;94.10;;;;;;5086028;28;27388;-61
2020/12/19 20:11:24;;;;;;;27.63;16.67;;;6.50;94.10;;;;;;5085670;28;27432;-49
2020/12/19 20:14:09;;;;;;;28.00;18.35;;;6.50;94.10;;;;;;5085770;28;27389;-61
2020/12/19 20:16:53;;;;;;;27.50;17.40;;;6.50;94.00;;;;;;5085280;28;27397;-59
2020/12/19 20:19:38;;;;;;;32.22;18.45;;;6.40;94.10;;;;;;5085675;28;28061;-60
2020/12/19 20:22:22;;;;;;;28.05;18.13;;;6.40;94.00;;;;;;5085720;28;27401;-49
2020/12/19 20:25:07;;;;;;;30.40;17.70;;;6.40;94.00;;;;;;5085550;28;27414;-59
2020/12/19 20:27:51;;;;;;;28.90;17.08;;;6.40;94.00;;;;;;5085663;28;27323;-61
2020/12/19 20:30:36;;;;;;;27.88;17.77;;;6.40;94.00;;;;;;5085378;28;27397;-60
2020/12/19 20:33:21;;;;;;;29.77;18.48;;;6.40;94.10;;;;;;5085048;28;27370;-61
2020/12/19 20:36:06;;;;;;;27.80;17.25;;;6.40;94.00;;;;;;5085615;28;27483;-60
2020/12/19 20:38:50;;;;;;;29.48;18.45;;;6.40;94.10;;;;;;5085566;28;27475;-60
2020/12/19 20:41:35;;;;;;;29.75;18.08;;;6.30;94.10;;;;;;5082064;28;27395;-61
2020/12/19 20:44:20;;;;;;;27.60;17.23;;;6.30;94.20;;;;;;5084688;28;27438;-60
2020/12/19 20:47:04;;;;;;;28.08;18.13;;;6.30;94.20;;;;;;5085533;28;27512;-60
2020/12/19 20:49:49;;;;;;;31.48;19.80;;;6.30;94.20;;;;;;5085373;28;27459;-60
2020/12/19 20:52:34;;;;;;;29.00;18.00;;;6.20;94.10;;;;;;5084158;28;27538;-60
2020/12/19 20:55:18;;;;;;;29.63;18.63;;;6.20;94.10;;;;;;5084939;28;27423;-60
2020/12/19 20:58:03;;;;;;;30.83;18.92;;;6.10;93.90;;;;;;5084986;28;27474;-60
2020/12/19 21:00:49;;;;;;;31.98;19.50;;;6.10;94.00;;;;;;5084933;28;27419;-60
2020/12/19 21:03:33;;;;;;;30.50;18.63;;;6.00;93.90;;;;;;5084193;28;27427;-59
2020/12/19 21:06:18;;;;;;;29.52;17.85;;;5.90;94.00;;;;;;5069935;28;27444;-51
2020/12/19 21:09:03;;;;;;;27.95;18.40;;;5.90;94.00;;;;;;5084532;28;27596;-61
2020/12/19 21:11:49;;;;;;;28.88;17.70;;;5.90;94.10;;;;;;5084703;28;27482;-61
2020/12/19 21:14:34;;;;;;;28.33;18.17;;;5.80;94.10;;;;;;5084438;28;27478;-61
2020/12/19 21:17:19;;;;;;;26.58;17.42;;;5.80;94.20;;;;;;5084839;28;27477;-61
2020/12/19 21:20:04;;;;;;;28.35;17.25;;;5.80;94.30;;;;;;5085003;28;27407;-60
2020/12/19 21:22:50;;;;;;;25.10;16.65;;;5.80;94.40;;;;;;5084554;28;27480;-60
2020/12/19 21:25:35;;;;;;;27.23;18.10;;;5.80;94.40;;;;;;5084809;28;27391;-60
2020/12/19 21:28:20;;;;;;;25.60;16.63;;;5.70;94.40;;;;;;5084664;28;27486;-61
2020/12/19 21:31:04;;;;;;;30.05;17.42;;;5.70;94.50;;;;;;5084646;28;27471;-60
2020/12/19 21:33:51;;;;;;;22.00;15.57;;;5.70;94.50;;;;;;5084638;28;27410;-60
2020/12/19 21:36:39;;;;;;;24.23;16.30;;;5.70;94.50;;;;;;5083840;28;27973;-60
2020/12/19 21:39:24;;;;;;;22.35;15.10;;;5.70;94.50;;;;;;5084463;28;27358;-60
2020/12/19 21:42:08;;;;;;;25.73;15.90;;;5.70;94.50;;;;;;5084600;28;27399;-58
2020/12/19 21:44:53;;;;;;;24.30;15.88;;;5.70;94.50;;;;;;5084666;28;26883;-59
2020/12/19 21:47:38;;;;;;;24.48;15.27;;;5.70;94.60;;;;;;5084244;28;27332;-60
2020/12/19 21:50:23;;;;;;;21.83;14.55;;;5.70;94.60;;;;;;5084020;28;27395;-59
2020/12/19 21:53:08;;;;;;;19.80;13.77;;;5.70;94.60;;;;;;5084103;28;27393;-59
2020/12/19 21:55:53;;;;;;;17.65;13.82;;;5.70;94.70;;;;;;5084350;28;27381;-60
2020/12/19 21:58:37;;;;;;;21.67;13.82;;;5.70;94.70;;;;;;5084567;28;27421;-60
2020/12/19 22:01:22;;;;;;;20.30;13.75;;;5.70;94.70;;;;;;5084333;28;27323;-60
2020/12/19 22:04:07;;;;;;;20.55;13.82;;;5.70;94.70;;;;;;5084335;28;27356;-60
2020/12/19 22:06:51;;;;;;;21.17;13.45;;;5.70;94.70;;;;;;5084072;28;27344;-60
2020/12/19 22:09:35;;;;;;;19.88;13.65;;;5.60;94.70;;;;;;5084105;28;27475;-60
2020/12/19 22:12:20;;;;;;;20.48;13.13;;;5.60;94.70;;;;;;5084269;28;27427;-59
2020/12/19 22:15:05;;;;;;;19.52;13.50;;;5.60;94.70;;;;;;5085469;28;27479;-58
2020/12/19 22:17:49;;;;;;;20.85;13.73;;;5.60;94.70;;;;;;5087483;28;27595;-59
2020/12/19 22:20:34;;;;;;;24.38;12.85;;;5.60;94.80;;;;;;5072674;28;27490;-60
2020/12/19 22:23:19;;;;;;;19.85;13.30;;;5.60;94.80;;;;;;5087750;28;27458;-58
2020/12/19 22:26:06;;;;;;;20.13;12.52;;;5.60;94.80;;;;;;5087524;28;27412;-59
2020/12/19 22:28:50;;;;;;;16.80;12.52;;;5.60;94.80;;;;;;5087386;28;27403;-60
2020/12/19 22:31:35;;;;;;;19.30;11.98;;;5.60;94.80;;;;;;5086754;28;27621;-60
2020/12/19 22:34:19;;;;;;;18.73;12.45;;;5.60;94.80;;;;;;5072268;28;27497;-60
2020/12/19 22:37:04;;;;;;;17.45;11.57;;;5.60;94.90;;;;;;5087422;28;27394;-60
2020/12/19 22:39:48;;;;;;;19.45;12.00;;;5.60;94.90;;;;;;5087652;28;27477;-60
2020/12/19 22:42:33;;;;;;;19.83;11.98;;;5.60;94.90;;;;;;5072445;28;27419;-58
2020/12/19 22:45:18;;;;;;;20.15;12.25;;;5.50;94.90;;;;;;5087389;28;27411;-60
2020/12/19 22:48:02;;;;;;;18.88;12.25;;;5.60;94.90;;;;;;5087431;28;27466;-60
2020/12/19 22:50:47;;;;;;;19.65;12.07;;;5.50;94.90;;;;;;5087051;28;27443;-58
2020/12/19 22:53:31;;;;;;;19.30;11.88;;;5.50;94.90;;;;;;5086041;28;27856;-60
2020/12/19 22:56:15;;;;;;;18.13;11.82;;;5.50;94.90;;;;;;5107625;28;27363;-58
2020/12/19 22:59:00;;;;;;;16.95;11.25;;;5.50;94.90;;;;;;5107702;28;27341;-59
2020/12/19 23:01:45;;;;;;;17.95;11.60;;;5.50;94.90;;;;;;5104016;28;27458;-59
2020/12/19 23:04:29;;;;;;;18.10;11.43;;;5.50;94.90;;;;;;5107482;28;27397;-50
2020/12/19 23:07:14;;;;;;;17.35;11.73;;;5.50;94.90;;;;;;5107387;28;27346;-60
2020/12/19 23:09:59;;;;;;;16.45;10.73;;;5.50;94.90;;;;;;5107268;28;27433;-60
2020/12/19 23:12:43;;;;;;;16.85;10.55;;;5.50;94.90;;;;;;5107056;28;27369;-51
2020/12/19 23:15:28;;;;;;;16.20;11.00;;;5.50;94.90;;;;;;5106999;28;27326;-59
2020/12/19 23:18:13;;;;;;;17.08;10.00;;;5.50;94.90;;;;;;5103772;28;27403;-60
2020/12/19 23:20:58;;;;;;;17.23;10.95;;;5.50;94.90;;;;;;5107000;28;27335;-60
2020/12/19 23:23:43;;;;;;;15.65;9.93;;;5.50;94.90;;;;;;5106964;28;27389;-58
2020/12/19 23:26:27;;;;;;;16.60;11.35;;;5.50;94.90;;;;;;5106204;27;27401;-60
2020/12/19 23:29:12;;;;;;;16.33;10.77;;;5.50;94.90;;;;;;5103680;28;27416;-60
2020/12/19 23:31:57;;;;;;;17.63;11.55;;;5.50;94.90;;;;;;5107097;28;27397;-59
2020/12/19 23:34:41;;;;;;;19.55;10.73;;;5.50;94.90;;;;;;5106736;28;26856;-59
2020/12/19 23:37:25;;;;;;;18.70;11.27;;;5.50;94.90;;;;;;5106790;28;27886;-59
2020/12/19 23:40:11;;;;;;;18.05;11.32;;;5.50;94.90;;;;;;5107038;28;27521;-61
2020/12/19 23:42:56;;;;;;;18.98;12.45;;;5.50;95.00;;;;;;5102810;28;27423;-61
2020/12/19 23:45:41;;;;;;;22.05;12.63;;;5.50;95.00;;;;;;5106793;28;27403;-61
2020/12/19 23:48:26;;;;;;;20.83;12.65;;;5.50;95.00;;;;;;5106922;28;27978;-49
2020/12/19 23:51:11;;;;;;;17.13;11.57;;;5.50;95.00;;;;;;5102321;28;27481;-61
2020/12/19 23:53:56;;;;;;;20.70;12.10;;;5.50;95.00;;;;;;5091371;28;27419;-61
2020/12/19 23:56:40;;;;;;;23.50;13.48;;;5.50;95.10;;;;;;5086023;28;27384;-61
2020/12/19 23:59:24;;;;;;;20.80;12.48;;;5.50;95.10;;;;;;5085988;28;27506;-59
